sensor_id;sensor_type;location;lat;lon;timestamp;pressure;altitude;pressure_sealevel;temperature;humidity
77893;BME280;67087;50.094;14.338;2023-02-15T00:02:11;99531.74;;;27.88;27.74
77893;BME280;67087;50.094;14.338;2023-02-15T00:04:36;99530.81;;;27.90;27.72
77893;BME280;67087;50.094;14.338;2023-02-15T00:07:01;99531.03;;;27.67;27.70
77893;BME280;67087;50.094;14.338;2023-02-15T00:09:26;99535.17;;;27.76;27.61
77893;BME280;67087;50.094;14.338;2023-02-15T00:11:52;99531.96;;;27.97;27.60
77893;BME280;67087;50.094;14.338;2023-02-15T00:14:19;99531.58;;;27.74;27.60
77893;BME280;67087;50.094;14.338;2023-02-15T00:16:43;99528.57;;;27.96;27.61
77893;BME280;67087;50.094;14.338;2023-02-15T00:19:09;99527.13;;;27.75;27.58
77893;BME280;67087;50.094;14.338;2023-02-15T00:21:34;99528.66;;;28.13;27.67
77893;BME280;67087;50.094;14.338;2023-02-15T00:24:00;99527.33;;;28.09;27.70
77893;BME280;67087;50.094;14.338;2023-02-15T00:26:24;99526.32;;;27.67;27.64
77893;BME280;67087;50.094;14.338;2023-02-15T00:28:49;99522.71;;;27.83;27.70
77893;BME280;67087;50.094;14.338;2023-02-15T00:31:14;99520.38;;;27.78;27.52
77893;BME280;67087;50.094;14.338;2023-02-15T00:33:39;99520.77;;;27.72;27.57
77893;BME280;67087;50.094;14.338;2023-02-15T00:36:07;99520.26;;;28.18;27.59
77893;BME280;67087;50.094;14.338;2023-02-15T00:38:31;99521.74;;;27.66;27.62
77893;BME280;67087;50.094;14.338;2023-02-15T00:40:58;99520.70;;;27.79;27.49
77893;BME280;67087;50.094;14.338;2023-02-15T00:43:22;99517.32;;;27.75;27.54
77893;BME280;67087;50.094;14.338;2023-02-15T00:45:47;99516.98;;;28.01;27.52
77893;BME280;67087;50.094;14.338;2023-02-15T00:48:12;99515.45;;;27.67;27.62
77893;BME280;67087;50.094;14.338;2023-02-15T00:50:37;99512.76;;;27.99;27.54
77893;BME280;67087;50.094;14.338;2023-02-15T00:53:03;99514.21;;;27.97;27.52
77893;BME280;67087;50.094;14.338;2023-02-15T00:55:28;99513.55;;;27.98;27.49
77893;BME280;67087;50.094;14.338;2023-02-15T00:57:53;99511.19;;;27.65;27.61
77893;BME280;67087;50.094;14.338;2023-02-15T01:00:19;99511.65;;;27.69;27.56
77893;BME280;67087;50.094;14.338;2023-02-15T01:02:45;99509.36;;;27.77;27.47
77893;BME280;67087;50.094;14.338;2023-02-15T01:05:10;99509.31;;;27.94;27.51
77893;BME280;67087;50.094;14.338;2023-02-15T01:07:35;99508.57;;;27.67;27.55
77893;BME280;67087;50.094;14.338;2023-02-15T01:10:01;99506.54;;;27.74;27.49
77893;BME280;67087;50.094;14.338;2023-02-15T01:12:26;99503.92;;;27.73;27.49
77893;BME280;67087;50.094;14.338;2023-02-15T01:14:51;99500.22;;;27.69;27.52
77893;BME280;67087;50.094;14.338;2023-02-15T01:17:17;99499.50;;;28.28;27.40
77893;BME280;67087;50.094;14.338;2023-02-15T01:19:42;99496.94;;;27.70;27.50
77893;BME280;67087;50.094;14.338;2023-02-15T01:22:08;99496.56;;;27.67;27.52
77893;BME280;67087;50.094;14.338;2023-02-15T01:24:33;99493.69;;;27.99;27.45
77893;BME280;67087;50.094;14.338;2023-02-15T01:26:58;99487.72;;;27.77;27.44
77893;BME280;67087;50.094;14.338;2023-02-15T01:29:23;99486.84;;;28.12;27.32
77893;BME280;67087;50.094;14.338;2023-02-15T01:31:48;99484.32;;;27.75;27.42
77893;BME280;67087;50.094;14.338;2023-02-15T01:34:14;99484.40;;;27.64;27.60
77893;BME280;67087;50.094;14.338;2023-02-15T01:36:39;99477.76;;;27.64;27.58
77893;BME280;67087;50.094;14.338;2023-02-15T01:39:04;99474.87;;;28.02;27.43
77893;BME280;67087;50.094;14.338;2023-02-15T01:41:29;99471.85;;;27.83;27.38
77893;BME280;67087;50.094;14.338;2023-02-15T01:43:56;99472.01;;;27.94;27.47
77893;BME280;67087;50.094;14.338;2023-02-15T01:46:23;99471.30;;;27.74;27.44
77893;BME280;67087;50.094;14.338;2023-02-15T01:48:47;99468.86;;;27.76;27.39
77893;BME280;67087;50.094;14.338;2023-02-15T01:51:10;99466.02;;;27.62;27.51
77893;BME280;67087;50.094;14.338;2023-02-15T01:53:38;99463.85;;;27.63;27.51
77893;BME280;67087;50.094;14.338;2023-02-15T01:56:05;99458.17;;;27.64;27.46
77893;BME280;67087;50.094;14.338;2023-02-15T01:58:27;99453.15;;;28.13;27.45
77893;BME280;67087;50.094;14.338;2023-02-15T02:00:52;99450.45;;;27.60;27.52
77893;BME280;67087;50.094;14.338;2023-02-15T02:03:16;99450.74;;;27.59;27.55
77893;BME280;67087;50.094;14.338;2023-02-15T02:05:42;99447.44;;;28.03;27.35
77893;BME280;67087;50.094;14.338;2023-02-15T02:08:07;99447.87;;;27.80;27.35
77893;BME280;67087;50.094;14.338;2023-02-15T02:10:32;99448.42;;;27.86;27.51
77893;BME280;67087;50.094;14.338;2023-02-15T02:12:59;99445.94;;;28.14;27.45
77893;BME280;67087;50.094;14.338;2023-02-15T02:15:27;99446.45;;;27.70;27.41
77893;BME280;67087;50.094;14.338;2023-02-15T02:17:58;99445.94;;;27.64;27.44
77893;BME280;67087;50.094;14.338;2023-02-15T02:20:28;99447.12;;;27.41;27.44
77893;BME280;67087;50.094;14.338;2023-02-15T02:25:15;99443.25;;;27.69;27.40
77893;BME280;67087;50.094;14.338;2023-02-15T02:27:34;99441.52;;;28.00;27.28
77893;BME280;67087;50.094;14.338;2023-02-15T02:30:08;99440.83;;;27.73;27.31
77893;BME280;67087;50.094;14.338;2023-02-15T02:34:51;99429.96;;;27.84;27.19
77893;BME280;67087;50.094;14.338;2023-02-15T02:37:17;99430.25;;;27.70;27.35
77893;BME280;67087;50.094;14.338;2023-02-15T02:39:42;99426.20;;;27.69;27.36
77893;BME280;67087;50.094;14.338;2023-02-15T02:42:05;99428.26;;;27.65;27.38
77893;BME280;67087;50.094;14.338;2023-02-15T02:44:31;99432.86;;;27.61;27.44
77893;BME280;67087;50.094;14.338;2023-02-15T02:46:54;99432.98;;;28.17;27.35
77893;BME280;67087;50.094;14.338;2023-02-15T02:49:17;99435.67;;;27.62;27.45
77893;BME280;67087;50.094;14.338;2023-02-15T02:51:41;99434.49;;;27.58;27.44
77893;BME280;67087;50.094;14.338;2023-02-15T02:54:07;99432.75;;;27.62;27.41
77893;BME280;67087;50.094;14.338;2023-02-15T02:56:35;99432.10;;;27.55;27.50
77893;BME280;67087;50.094;14.338;2023-02-15T02:59:02;99429.68;;;27.67;27.38
77893;BME280;67087;50.094;14.338;2023-02-15T03:01:26;99430.25;;;27.56;27.46
77893;BME280;67087;50.094;14.338;2023-02-15T03:03:51;99424.13;;;27.71;27.33
77893;BME280;67087;50.094;14.338;2023-02-15T03:06:17;99425.06;;;27.88;27.35
77893;BME280;67087;50.094;14.338;2023-02-15T03:08:42;99424.16;;;27.75;27.26
77893;BME280;67087;50.094;14.338;2023-02-15T03:11:04;99427.78;;;27.64;27.38
77893;BME280;67087;50.094;14.338;2023-02-15T03:13:30;99425.22;;;27.81;27.17
77893;BME280;67087;50.094;14.338;2023-02-15T03:15:55;99422.77;;;27.81;27.17
77893;BME280;67087;50.094;14.338;2023-02-15T03:18:29;99421.59;;;27.66;27.34
77893;BME280;67087;50.094;14.338;2023-02-15T03:20:46;99421.09;;;27.42;27.34
77893;BME280;67087;50.094;14.338;2023-02-15T03:23:15;99421.00;;;27.63;27.36
77893;BME280;67087;50.094;14.338;2023-02-15T03:25:39;99421.20;;;27.53;27.43
77893;BME280;67087;50.094;14.338;2023-02-15T03:28:04;99414.76;;;27.78;27.41
77893;BME280;67087;50.094;14.338;2023-02-15T03:30:27;99410.21;;;27.62;27.32
77893;BME280;67087;50.094;14.338;2023-02-15T03:32:52;99408.82;;;27.61;27.37
77893;BME280;67087;50.094;14.338;2023-02-15T03:35:16;99405.96;;;27.46;27.27
77893;BME280;67087;50.094;14.338;2023-02-15T03:37:45;99403.59;;;27.67;27.31
77893;BME280;67087;50.094;14.338;2023-02-15T03:40:10;99399.95;;;27.86;27.37
77893;BME280;67087;50.094;14.338;2023-02-15T03:42:33;99401.21;;;27.63;27.34
77893;BME280;67087;50.094;14.338;2023-02-15T03:45:00;99401.01;;;27.70;27.32
77893;BME280;67087;50.094;14.338;2023-02-15T03:47:25;99399.01;;;27.65;27.39
77893;BME280;67087;50.094;14.338;2023-02-15T03:49:52;99396.61;;;27.96;27.31
77893;BME280;67087;50.094;14.338;2023-02-15T03:52:14;99396.98;;;28.00;27.23
77893;BME280;67087;50.094;14.338;2023-02-15T03:54:39;99399.54;;;28.09;27.13
77893;BME280;67087;50.094;14.338;2023-02-15T03:57:04;99399.59;;;27.78;27.19
77893;BME280;67087;50.094;14.338;2023-02-15T03:59:28;99398.21;;;27.75;27.24
77893;BME280;67087;50.094;14.338;2023-02-15T04:02:02;99398.46;;;28.05;27.19
77893;BME280;67087;50.094;14.338;2023-02-15T04:04:21;99399.34;;;27.87;27.44
77893;BME280;67087;50.094;14.338;2023-02-15T04:06:45;99398.00;;;27.74;27.30
77893;BME280;67087;50.094;14.338;2023-02-15T04:09:11;99399.29;;;27.77;27.23
77893;BME280;67087;50.094;14.338;2023-02-15T04:11:35;99400.70;;;27.94;27.31
77893;BME280;67087;50.094;14.338;2023-02-15T04:14:00;99402.93;;;27.74;27.22
77893;BME280;67087;50.094;14.338;2023-02-15T04:16:26;99398.24;;;27.78;27.17
77893;BME280;67087;50.094;14.338;2023-02-15T04:18:51;99398.52;;;27.62;27.33
77893;BME280;67087;50.094;14.338;2023-02-15T04:21:17;99397.28;;;27.74;27.22
77893;BME280;67087;50.094;14.338;2023-02-15T04:23:42;99395.33;;;27.77;27.20
77893;BME280;67087;50.094;14.338;2023-02-15T04:26:08;99394.15;;;27.80;27.14
77893;BME280;67087;50.094;14.338;2023-02-15T04:28:33;99391.72;;;27.84;27.09
77893;BME280;67087;50.094;14.338;2023-02-15T04:30:58;99390.81;;;27.85;27.10
77893;BME280;67087;50.094;14.338;2023-02-15T04:33:24;99392.54;;;27.83;27.12
77893;BME280;67087;50.094;14.338;2023-02-15T04:35:49;99391.14;;;27.79;27.13
77893;BME280;67087;50.094;14.338;2023-02-15T04:38:15;99391.16;;;27.78;27.16
77893;BME280;67087;50.094;14.338;2023-02-15T04:40:40;99394.32;;;27.94;27.25
77893;BME280;67087;50.094;14.338;2023-02-15T04:43:05;99393.13;;;27.71;27.22
77893;BME280;67087;50.094;14.338;2023-02-15T04:45:30;99393.16;;;27.58;27.42
77893;BME280;67087;50.094;14.338;2023-02-15T04:47:55;99392.34;;;27.72;27.24
77893;BME280;67087;50.094;14.338;2023-02-15T04:50:21;99394.42;;;27.67;27.27
77893;BME280;67087;50.094;14.338;2023-02-15T04:52:46;99391.65;;;27.79;27.15
77893;BME280;67087;50.094;14.338;2023-02-15T04:55:11;99388.95;;;27.76;27.16
77893;BME280;67087;50.094;14.338;2023-02-15T04:57:36;99386.73;;;27.65;27.29
77893;BME280;67087;50.094;14.338;2023-02-15T05:00:02;99384.60;;;27.71;27.22
77893;BME280;67087;50.094;14.338;2023-02-15T05:02:28;99384.33;;;27.73;27.15
77893;BME280;67087;50.094;14.338;2023-02-15T05:04:53;99383.78;;;27.46;27.19
77893;BME280;67087;50.094;14.338;2023-02-15T05:07:18;99380.52;;;27.75;27.12
77893;BME280;67087;50.094;14.338;2023-02-15T05:09:43;99381.32;;;28.06;27.07
77893;BME280;67087;50.094;14.338;2023-02-15T05:12:09;99378.25;;;27.89;26.99
77893;BME280;67087;50.094;14.338;2023-02-15T05:14:34;99378.71;;;27.85;27.02
77893;BME280;67087;50.094;14.338;2023-02-15T05:16:59;99380.85;;;27.72;27.16
77893;BME280;67087;50.094;14.338;2023-02-15T05:19:24;99380.34;;;27.68;27.21
77893;BME280;67087;50.094;14.338;2023-02-15T05:21:49;99381.10;;;27.71;27.17
77893;BME280;67087;50.094;14.338;2023-02-15T05:24:15;99382.55;;;27.88;27.96
77893;BME280;67087;50.094;14.338;2023-02-15T05:26:40;99381.01;;;27.87;28.18
77893;BME280;67087;50.094;14.338;2023-02-15T05:29:07;99381.39;;;28.01;27.82
77893;BME280;67087;50.094;14.338;2023-02-15T05:31:32;99381.74;;;27.78;27.71
77893;BME280;67087;50.094;14.338;2023-02-15T05:33:57;99381.94;;;27.83;27.62
77893;BME280;67087;50.094;14.338;2023-02-15T05:36:21;99383.27;;;27.84;27.52
77893;BME280;67087;50.094;14.338;2023-02-15T05:38:47;99383.32;;;27.86;27.56
77893;BME280;67087;50.094;14.338;2023-02-15T05:41:12;99382.68;;;27.81;27.70
77893;BME280;67087;50.094;14.338;2023-02-15T05:43:38;99387.48;;;27.87;27.80
77893;BME280;67087;50.094;14.338;2023-02-15T05:46:03;99390.16;;;27.80;27.58
77893;BME280;67087;50.094;14.338;2023-02-15T05:48:28;99388.54;;;27.86;27.26
77893;BME280;67087;50.094;14.338;2023-02-15T05:50:57;99388.38;;;27.85;27.20
77893;BME280;67087;50.094;14.338;2023-02-15T05:53:19;99388.85;;;27.85;27.25
77893;BME280;67087;50.094;14.338;2023-02-15T05:55:45;99386.23;;;27.97;27.56
77893;BME280;67087;50.094;14.338;2023-02-15T05:58:10;99387.97;;;28.06;27.61
77893;BME280;67087;50.094;14.338;2023-02-15T06:00:35;99392.94;;;27.82;27.96
77893;BME280;67087;50.094;14.338;2023-02-15T06:03:01;99393.97;;;28.07;27.57
77893;BME280;67087;50.094;14.338;2023-02-15T06:05:26;99394.11;;;27.98;27.71
77893;BME280;67087;50.094;14.338;2023-02-15T06:07:52;99394.28;;;27.86;27.87
77893;BME280;67087;50.094;14.338;2023-02-15T06:10:17;99396.62;;;27.65;27.87
77893;BME280;67087;50.094;14.338;2023-02-15T06:12:43;99399.62;;;27.78;28.13
77893;BME280;67087;50.094;14.338;2023-02-15T06:15:09;99399.33;;;27.78;28.17
77893;BME280;67087;50.094;14.338;2023-02-15T06:17:34;99400.59;;;27.82;28.13
77893;BME280;67087;50.094;14.338;2023-02-15T06:19:59;99404.81;;;28.25;28.02
77893;BME280;67087;50.094;14.338;2023-02-15T06:22:24;99404.83;;;27.67;28.12
77893;BME280;67087;50.094;14.338;2023-02-15T06:24:49;99406.71;;;27.86;28.16
77893;BME280;67087;50.094;14.338;2023-02-15T06:27:15;99408.76;;;27.84;28.20
77893;BME280;67087;50.094;14.338;2023-02-15T06:29:40;99409.77;;;27.85;28.16
77893;BME280;67087;50.094;14.338;2023-02-15T06:32:06;99409.80;;;27.80;28.18
77893;BME280;67087;50.094;14.338;2023-02-15T06:34:31;99416.78;;;27.86;28.16
77893;BME280;67087;50.094;14.338;2023-02-15T06:36:56;99417.59;;;27.91;28.05
77893;BME280;67087;50.094;14.338;2023-02-15T06:39:21;99418.52;;;28.03;27.88
77893;BME280;67087;50.094;14.338;2023-02-15T06:41:47;99420.84;;;27.81;28.04
77893;BME280;67087;50.094;14.338;2023-02-15T06:44:12;99423.29;;;27.67;28.23
77893;BME280;67087;50.094;14.338;2023-02-15T06:46:37;99425.37;;;27.60;28.25
77893;BME280;67087;50.094;14.338;2023-02-15T06:49:02;99423.93;;;27.98;27.87
77893;BME280;67087;50.094;14.338;2023-02-15T06:51:28;99425.80;;;27.80;28.07
77893;BME280;67087;50.094;14.338;2023-02-15T06:53:53;99428.08;;;28.10;27.95
77893;BME280;67087;50.094;14.338;2023-02-15T06:56:18;99429.16;;;27.91;27.83
77893;BME280;67087;50.094;14.338;2023-02-15T06:58:44;99430.60;;;27.91;27.77
77893;BME280;67087;50.094;14.338;2023-02-15T07:01:09;99435.09;;;27.93;27.74
77893;BME280;67087;50.094;14.338;2023-02-15T07:03:35;99433.11;;;27.90;27.78
77893;BME280;67087;50.094;14.338;2023-02-15T07:06:02;99436.42;;;27.95;27.72
77893;BME280;67087;50.094;14.338;2023-02-15T07:08:26;99438.80;;;27.76;28.04
77893;BME280;67087;50.094;14.338;2023-02-15T07:10:51;99440.49;;;27.78;28.10
77893;BME280;67087;50.094;14.338;2023-02-15T07:13:16;99438.02;;;27.86;27.90
77893;BME280;67087;50.094;14.338;2023-02-15T07:15:41;99437.40;;;27.88;28.39
77893;BME280;67087;50.094;14.338;2023-02-15T07:18:06;99433.22;;;27.63;28.37
77893;BME280;67087;50.094;14.338;2023-02-15T07:20:31;99429.21;;;27.70;28.35
77893;BME280;67087;50.094;14.338;2023-02-15T07:22:56;99428.54;;;27.74;28.13
77893;BME280;67087;50.094;14.338;2023-02-15T07:25:22;99429.15;;;27.89;28.45
77893;BME280;67087;50.094;14.338;2023-02-15T07:27:48;99422.96;;;27.60;28.35
77893;BME280;67087;50.094;14.338;2023-02-15T07:30:15;99418.33;;;27.58;28.64
77893;BME280;67087;50.094;14.338;2023-02-15T07:32:38;99413.56;;;27.67;28.51
77893;BME280;67087;50.094;14.338;2023-02-15T07:35:04;99408.95;;;27.60;28.35
77893;BME280;67087;50.094;14.338;2023-02-15T07:37:28;99408.35;;;27.64;28.33
77893;BME280;67087;50.094;14.338;2023-02-15T07:39:54;99404.40;;;27.71;28.13
77893;BME280;67087;50.094;14.338;2023-02-15T07:42:19;99402.96;;;27.57;28.26
77893;BME280;67087;50.094;14.338;2023-02-15T07:44:45;99394.64;;;27.65;28.13
77893;BME280;67087;50.094;14.338;2023-02-15T07:47:10;99386.85;;;27.74;27.99
77893;BME280;67087;50.094;14.338;2023-02-15T07:49:35;99384.26;;;27.52;28.16
77893;BME280;67087;50.094;14.338;2023-02-15T07:52:01;99382.45;;;27.92;28.05
77893;BME280;67087;50.094;14.338;2023-02-15T07:54:26;99378.25;;;27.63;28.12
77893;BME280;67087;50.094;14.338;2023-02-15T07:56:52;99379.59;;;27.50;27.99
77893;BME280;67087;50.094;14.338;2023-02-15T07:59:17;99382.20;;;27.77;27.96
77893;BME280;67087;50.094;14.338;2023-02-15T08:01:42;99382.28;;;27.99;28.01
77893;BME280;67087;50.094;14.338;2023-02-15T08:04:08;99385.47;;;27.87;27.80
77893;BME280;67087;50.094;14.338;2023-02-15T08:06:35;99387.00;;;27.61;28.20
77893;BME280;67087;50.094;14.338;2023-02-15T08:08:59;99390.47;;;27.65;28.30
77893;BME280;67087;50.094;14.338;2023-02-15T08:11:26;99391.98;;;27.41;28.77
77893;BME280;67087;50.094;14.338;2023-02-15T08:13:51;99389.63;;;28.24;25.96
77893;BME280;67087;50.094;14.338;2023-02-15T08:16:15;99387.58;;;28.22;24.01
77893;BME280;67087;50.094;14.338;2023-02-15T08:18:41;99382.56;;;28.00;24.14
77893;BME280;67087;50.094;14.338;2023-02-15T08:21:06;99383.30;;;27.81;24.70
77893;BME280;67087;50.094;14.338;2023-02-15T08:23:31;99384.70;;;27.74;25.03
77893;BME280;67087;50.094;14.338;2023-02-15T08:25:59;99386.00;;;27.26;25.24
77893;BME280;67087;50.094;14.338;2023-02-15T08:28:22;99387.92;;;27.22;25.49
77893;BME280;67087;50.094;14.338;2023-02-15T08:30:47;99391.17;;;27.76;25.59
77893;BME280;67087;50.094;14.338;2023-02-15T08:33:13;99388.83;;;27.50;25.73
77893;BME280;67087;50.094;14.338;2023-02-15T08:35:38;99387.38;;;27.55;26.03
77893;BME280;67087;50.094;14.338;2023-02-15T08:38:03;99386.17;;;27.53;26.34
77893;BME280;67087;50.094;14.338;2023-02-15T08:40:29;99386.77;;;27.60;26.36
77893;BME280;67087;50.094;14.338;2023-02-15T08:42:55;99382.67;;;27.59;26.50
77893;BME280;67087;50.094;14.338;2023-02-15T08:45:20;99380.05;;;27.49;26.67
77893;BME280;67087;50.094;14.338;2023-02-15T08:47:46;99376.23;;;27.52;26.69
77893;BME280;67087;50.094;14.338;2023-02-15T08:50:11;99370.99;;;27.61;26.67
77893;BME280;67087;50.094;14.338;2023-02-15T08:52:36;99371.84;;;27.13;26.77
77893;BME280;67087;50.094;14.338;2023-02-15T08:55:02;99374.94;;;27.90;26.84
77893;BME280;67087;50.094;14.338;2023-02-15T08:57:27;99372.41;;;27.36;27.03
77893;BME280;67087;50.094;14.338;2023-02-15T08:59:52;99377.33;;;27.73;27.00
77893;BME280;67087;50.094;14.338;2023-02-15T09:02:17;99369.99;;;27.65;27.04
77893;BME280;67087;50.094;14.338;2023-02-15T09:04:43;99366.70;;;27.64;27.18
77893;BME280;67087;50.094;14.338;2023-02-15T09:07:08;99367.91;;;27.83;27.06
77893;BME280;67087;50.094;14.338;2023-02-15T09:09:33;99367.14;;;27.79;27.56
77893;BME280;67087;50.094;14.338;2023-02-15T09:11:59;99368.67;;;27.90;28.09
77893;BME280;67087;50.094;14.338;2023-02-15T09:14:24;99367.91;;;27.62;28.18
77893;BME280;67087;50.094;14.338;2023-02-15T09:16:49;99365.71;;;27.98;28.44
77893;BME280;67087;50.094;14.338;2023-02-15T09:19:15;99369.02;;;27.73;28.88
77893;BME280;67087;50.094;14.338;2023-02-15T09:21:40;99369.96;;;27.86;28.34
77893;BME280;67087;50.094;14.338;2023-02-15T09:24:08;99366.52;;;27.84;28.15
77893;BME280;67087;50.094;14.338;2023-02-15T09:26:33;99366.79;;;27.77;28.07
77893;BME280;67087;50.094;14.338;2023-02-15T09:28:58;99366.96;;;27.80;28.51
77893;BME280;67087;50.094;14.338;2023-02-15T09:31:25;99368.59;;;27.52;28.71
77893;BME280;67087;50.094;14.338;2023-02-15T09:33:48;99369.14;;;27.78;28.66
77893;BME280;67087;50.094;14.338;2023-02-15T09:36:16;99368.30;;;27.62;28.78
77893;BME280;67087;50.094;14.338;2023-02-15T09:38:39;99364.22;;;27.60;28.74
77893;BME280;67087;50.094;14.338;2023-02-15T09:41:22;99364.11;;;27.58;28.75
77893;BME280;67087;50.094;14.338;2023-02-15T09:43:35;99362.73;;;27.88;28.59
77893;BME280;67087;50.094;14.338;2023-02-15T09:46:08;99359.89;;;27.83;28.84
77893;BME280;67087;50.094;14.338;2023-02-15T09:48:29;99359.46;;;27.95;28.95
77893;BME280;67087;50.094;14.338;2023-02-15T09:50:54;99357.55;;;27.91;28.85
77893;BME280;67087;50.094;14.338;2023-02-15T09:53:25;99355.67;;;28.03;28.86
77893;BME280;67087;50.094;14.338;2023-02-15T09:55:46;99354.61;;;28.03;28.94
77893;BME280;67087;50.094;14.338;2023-02-15T09:58:10;99351.18;;;28.00;28.93
77893;BME280;67087;50.094;14.338;2023-02-15T10:00:33;99355.53;;;27.62;29.15
77893;BME280;67087;50.094;14.338;2023-02-15T10:03:10;99357.57;;;27.64;29.42
77893;BME280;67087;50.094;14.338;2023-02-15T10:05:26;99358.89;;;28.02;29.17
77893;BME280;67087;50.094;14.338;2023-02-15T10:07:58;99362.10;;;27.69;29.16
77893;BME280;67087;50.094;14.338;2023-02-15T10:10:17;99363.61;;;27.98;29.11
77893;BME280;67087;50.094;14.338;2023-02-15T10:12:45;99362.85;;;27.95;29.47
77893;BME280;67087;50.094;14.338;2023-02-15T10:15:14;99359.85;;;27.79;29.27
77893;BME280;67087;50.094;14.338;2023-02-15T10:17:37;99360.31;;;27.90;29.38
77893;BME280;67087;50.094;14.338;2023-02-15T10:19:58;99356.36;;;27.96;29.24
77893;BME280;67087;50.094;14.338;2023-02-15T10:22:23;99353.46;;;28.04;29.09
77893;BME280;67087;50.094;14.338;2023-02-15T10:24:55;99353.46;;;27.94;29.29
77893;BME280;67087;50.094;14.338;2023-02-15T10:27:11;99350.10;;;28.02;29.11
77893;BME280;67087;50.094;14.338;2023-02-15T10:29:35;99353.75;;;27.91;29.59
77893;BME280;67087;50.094;14.338;2023-02-15T10:32:05;99352.09;;;27.70;29.55
77893;BME280;67087;50.094;14.338;2023-02-15T10:34:30;99351.00;;;27.95;29.54
77893;BME280;67087;50.094;14.338;2023-02-15T10:37:01;99348.27;;;27.90;29.46
77893;BME280;67087;50.094;14.338;2023-02-15T10:39:21;99344.29;;;27.97;29.36
77893;BME280;67087;50.094;14.338;2023-02-15T10:41:44;99341.64;;;27.77;29.22
77893;BME280;67087;50.094;14.338;2023-02-15T10:44:13;99340.65;;;27.91;29.29
77893;BME280;67087;50.094;14.338;2023-02-15T10:46:43;99339.39;;;27.50;29.42
77893;BME280;67087;50.094;14.338;2023-02-15T10:49:09;99334.75;;;28.06;29.35
77893;BME280;67087;50.094;14.338;2023-02-15T10:51:30;99327.50;;;27.89;29.19
77893;BME280;67087;50.094;14.338;2023-02-15T10:54:02;99325.35;;;28.04;29.11
77893;BME280;67087;50.094;14.338;2023-02-15T10:56:19;99323.72;;;27.91;29.15
77893;BME280;67087;50.094;14.338;2023-02-15T10:58:49;99323.01;;;27.74;32.80
77893;BME280;67087;50.094;14.338;2023-02-15T11:01:10;99322.45;;;28.08;32.20
77893;BME280;67087;50.094;14.338;2023-02-15T11:03:36;99322.81;;;28.14;31.95
77893;BME280;67087;50.094;14.338;2023-02-15T11:06:03;99318.74;;;28.38;31.11
77893;BME280;67087;50.094;14.338;2023-02-15T11:08:19;99312.72;;;28.34;30.99
77893;BME280;67087;50.094;14.338;2023-02-15T11:10:50;99315.35;;;28.19;30.87
77893;BME280;67087;50.094;14.338;2023-02-15T11:13:15;99311.39;;;28.41;30.74
77893;BME280;67087;50.094;14.338;2023-02-15T11:15:40;99310.95;;;28.16;30.86
77893;BME280;67087;50.094;14.338;2023-02-15T11:18:09;99309.00;;;28.14;30.54
77893;BME280;67087;50.094;14.338;2023-02-15T11:20:30;99310.81;;;28.30;30.38
77893;BME280;67087;50.094;14.338;2023-02-15T11:22:53;99310.97;;;28.22;30.26
77893;BME280;67087;50.094;14.338;2023-02-15T11:25:22;99311.58;;;28.10;30.19
77893;BME280;67087;50.094;14.338;2023-02-15T11:27:45;99310.81;;;28.00;30.19
77893;BME280;67087;50.094;14.338;2023-02-15T11:30:13;99306.86;;;28.02;30.08
77893;BME280;67087;50.094;14.338;2023-02-15T11:32:35;99302.91;;;27.89;30.12
77893;BME280;67087;50.094;14.338;2023-02-15T11:35:03;99299.92;;;28.01;29.92
77893;BME280;67087;50.094;14.338;2023-02-15T11:37:30;99296.47;;;27.87;29.97
77893;BME280;67087;50.094;14.338;2023-02-15T11:39:51;99295.63;;;28.38;29.79
77893;BME280;67087;50.094;14.338;2023-02-15T11:42:19;99290.90;;;27.99;29.65
77893;BME280;67087;50.094;14.338;2023-02-15T11:44:45;99286.83;;;27.93;29.70
77893;BME280;67087;50.094;14.338;2023-02-15T11:47:09;99283.03;;;27.96;29.61
77893;BME280;67087;50.094;14.338;2023-02-15T11:49:33;99278.88;;;27.91;29.61
77893;BME280;67087;50.094;14.338;2023-02-15T11:52:00;99277.90;;;27.91;29.54
77893;BME280;67087;50.094;14.338;2023-02-15T11:54:26;99278.39;;;27.86;29.57
77893;BME280;67087;50.094;14.338;2023-02-15T11:56:48;99274.73;;;27.87;29.49
77893;BME280;67087;50.094;14.338;2023-02-15T11:59:21;99271.79;;;28.09;29.36
77893;BME280;67087;50.094;14.338;2023-02-15T12:01:42;99269.56;;;27.66;29.23
77893;BME280;67087;50.094;14.338;2023-02-15T12:04:06;99267.19;;;27.75;29.34
77893;BME280;67087;50.094;14.338;2023-02-15T12:06:32;99262.75;;;27.99;29.28
77893;BME280;67087;50.094;14.338;2023-02-15T12:09:01;99260.62;;;27.83;29.20
77893;BME280;67087;50.094;14.338;2023-02-15T12:11:25;99253.29;;;27.60;29.41
77893;BME280;67087;50.094;14.338;2023-02-15T12:13:56;99248.98;;;27.90;29.22
77893;BME280;67087;50.094;14.338;2023-02-15T12:16:11;99248.27;;;27.81;29.07
77893;BME280;67087;50.094;14.338;2023-02-15T12:18:37;99244.12;;;27.98;29.25
77893;BME280;67087;50.094;14.338;2023-02-15T12:21:02;99242.81;;;27.93;29.33
77893;BME280;67087;50.094;14.338;2023-02-15T12:23:28;99242.33;;;27.63;29.27
77893;BME280;67087;50.094;14.338;2023-02-15T12:25:52;99241.36;;;27.68;29.17
77893;BME280;67087;50.094;14.338;2023-02-15T12:28:23;99239.49;;;27.62;29.25
77893;BME280;67087;50.094;14.338;2023-02-15T12:30:42;99234.89;;;27.17;29.19
77893;BME280;67087;50.094;14.338;2023-02-15T12:33:14;99232.13;;;27.70;29.17
77893;BME280;67087;50.094;14.338;2023-02-15T12:35:35;99230.09;;;27.75;29.07
77893;BME280;67087;50.094;14.338;2023-02-15T12:38:03;99226.57;;;27.69;29.15
77893;BME280;67087;50.094;14.338;2023-02-15T12:40:27;99220.30;;;27.72;29.09
77893;BME280;67087;50.094;14.338;2023-02-15T12:42:50;99218.72;;;27.92;29.13
77893;BME280;67087;50.094;14.338;2023-02-15T12:45:21;99213.17;;;27.81;29.20